createdAt,value
2019-02-12T00:03:50.990Z,14.30
2019-02-12T00:08:55.385Z,14.40
2019-02-12T00:13:59.844Z,14.80
2019-02-12T00:19:04.436Z,14.60
2019-02-12T00:24:08.851Z,14.30
2019-02-12T00:29:13.669Z,14.20
2019-02-12T00:34:18.304Z,14.00
2019-02-12T00:39:22.934Z,13.80
2019-02-12T00:44:28.097Z,13.90
2019-02-12T00:49:32.660Z,14.10
2019-02-12T00:54:37.003Z,14.30
2019-02-12T00:59:41.391Z,14.30
2019-02-12T01:04:46.197Z,14.10
2019-02-12T01:09:50.658Z,14.10
2019-02-12T01:14:55.156Z,14.00
2019-02-12T01:19:59.506Z,14.10
2019-02-12T01:25:04.273Z,13.90
2019-02-12T01:30:14.293Z,14.00
2019-02-12T01:35:18.761Z,14.00
2019-02-12T01:40:23.552Z,13.80
2019-02-12T01:45:28.129Z,13.80
2019-02-12T01:50:32.611Z,13.70
2019-02-12T01:55:36.979Z,13.60
2019-02-12T02:00:41.359Z,13.60
2019-02-12T02:05:45.769Z,13.40
2019-02-12T02:10:50.181Z,13.60
2019-02-12T02:15:55.066Z,13.60
2019-02-12T02:20:59.843Z,13.50
2019-02-12T02:26:04.208Z,13.20
2019-02-12T02:31:08.874Z,13.10
2019-02-12T02:36:13.409Z,12.90
2019-02-12T02:41:17.874Z,13.20
2019-02-12T02:46:22.425Z,13.30
2019-02-12T02:51:26.873Z,13.30
2019-02-12T02:56:31.290Z,13.40
2019-02-12T03:01:35.739Z,13.40
2019-02-12T03:06:40.099Z,13.50
2019-02-12T03:11:44.487Z,13.60
2019-02-12T03:16:48.840Z,13.70
2019-02-12T03:22:03.167Z,13.50
2019-02-12T03:27:00.119Z,13.60
2019-02-12T03:32:04.775Z,13.40
2019-02-12T03:37:09.198Z,13.00
2019-02-12T03:42:13.940Z,13.00
2019-02-12T03:47:18.313Z,13.10
2019-02-12T03:52:22.803Z,13.00
2019-02-12T03:57:27.339Z,13.00
2019-02-12T04:02:31.701Z,12.70
2019-02-12T04:07:36.158Z,13.00
2019-02-12T04:12:40.656Z,13.20
2019-02-12T04:17:45.724Z,13.30
2019-02-12T04:22:50.236Z,13.20
2019-02-12T04:27:55.509Z,13.20
2019-02-12T04:33:00.660Z,13.00
2019-02-12T04:38:05.112Z,12.90
2019-02-12T04:43:09.492Z,13.00
2019-02-12T04:48:13.951Z,12.90
2019-02-12T04:53:21.112Z,12.80
2019-02-12T04:58:25.516Z,12.90
2019-02-12T05:03:29.922Z,13.10
2019-02-12T05:09:11.426Z,12.90
2019-02-12T05:14:16.013Z,12.90
2019-02-12T05:19:20.493Z,13.00
2019-02-12T05:24:24.837Z,13.10
2019-02-12T05:29:29.191Z,13.20
2019-02-12T05:34:33.634Z,13.10
2019-02-12T05:39:37.990Z,13.00
2019-02-12T05:44:42.351Z,12.90
2019-02-12T05:49:47.011Z,13.10
2019-02-12T05:54:51.668Z,12.90
2019-02-12T05:59:56.149Z,12.60
2019-02-12T06:05:00.518Z,12.70
2019-02-12T06:10:05.342Z,13.10
2019-02-12T06:15:09.713Z,13.30
2019-02-12T06:20:14.292Z,13.50
2019-02-12T06:25:18.668Z,13.40
2019-02-12T06:30:23.145Z,13.40
2019-02-12T06:35:27.922Z,13.30
2019-02-12T06:40:32.293Z,13.10
2019-02-12T06:45:36.947Z,13.00
2019-02-12T06:50:41.541Z,13.20
2019-02-12T06:55:46.042Z,13.20
2019-02-12T07:00:50.419Z,13.20
2019-02-12T07:06:02.625Z,13.50
2019-02-12T07:11:37.922Z,13.40
2019-02-12T07:17:23.601Z,13.50
2019-02-12T07:23:21.605Z,13.60
2019-02-12T07:29:06.222Z,13.50
2019-02-12T07:34:34.102Z,13.20
2019-02-12T07:39:49.387Z,13.40
2019-02-12T07:45:21.139Z,13.20
2019-02-12T07:51:03.906Z,13.60
2019-02-12T07:56:41.183Z,13.70
2019-02-12T08:02:48.185Z,13.70
2019-02-12T08:08:28.603Z,13.80
2019-02-12T08:14:12.635Z,13.90
2019-02-12T08:20:16.516Z,14.10
2019-02-12T08:26:01.466Z,14.20
2019-02-12T08:31:36.342Z,14.40
2019-02-12T08:37:14.908Z,14.30
2019-02-12T08:42:44.419Z,14.10
2019-02-12T08:48:14.946Z,14.20
2019-02-12T08:53:58.272Z,14.50
2019-02-12T08:59:45.601Z,14.30
2019-02-12T09:05:29.854Z,14.10
2019-02-12T09:11:24.826Z,14.10
2019-02-12T09:17:18.067Z,13.90
2019-02-12T09:23:13.285Z,13.80
2019-02-12T09:28:48.798Z,13.90
2019-02-12T09:34:39.524Z,13.60
2019-02-12T09:40:19.139Z,13.80
2019-02-12T09:45:32.364Z,14.00
2019-02-12T09:51:19.960Z,13.70
2019-02-12T09:57:04.130Z,14.10
2019-02-12T10:02:56.227Z,14.00
2019-02-12T10:08:16.555Z,13.90
2019-02-12T10:13:43.139Z,13.70
2019-02-12T10:19:21.983Z,14.40
2019-02-12T10:24:59.408Z,14.40
2019-02-12T10:30:25.868Z,14.30
2019-02-12T10:35:30.363Z,13.70
2019-02-12T10:40:34.754Z,13.60
2019-02-12T10:45:39.313Z,13.40
2019-02-12T10:50:43.757Z,13.00
2019-02-12T10:55:48.571Z,12.90
2019-02-12T11:00:53.230Z,13.30
2019-02-12T11:05:58.068Z,13.50
2019-02-12T11:11:02.794Z,14.20
2019-02-12T11:16:07.340Z,14.10
2019-02-12T11:21:12.299Z,13.80
2019-02-12T11:26:15.986Z,13.80
2019-02-12T11:31:20.414Z,13.70
2019-02-12T11:36:25.149Z,13.80
2019-02-12T11:41:29.479Z,14.00
2019-02-12T11:46:34.224Z,14.60
2019-02-12T11:51:38.564Z,14.40
2019-02-12T11:56:43.074Z,14.20
2019-02-12T12:01:47.875Z,13.80
2019-02-12T12:06:52.662Z,14.00
2019-02-12T12:11:57.040Z,13.80
2019-02-12T12:17:01.810Z,13.90
2019-02-12T12:22:06.285Z,14.10
2019-02-12T12:27:10.662Z,14.20
2019-02-12T12:32:15.036Z,13.90
2019-02-12T12:37:19.711Z,13.90
2019-02-12T12:42:24.525Z,14.10
2019-02-12T12:47:28.986Z,14.10
2019-02-12T12:52:33.644Z,13.80
2019-02-12T12:57:41.921Z,13.60
2019-02-12T13:02:43.428Z,13.70
2019-02-12T13:07:47.919Z,13.90
2019-02-12T13:12:52.530Z,14.20
2019-02-12T13:17:57.286Z,14.20
2019-02-12T13:23:01.641Z,14.20
2019-02-12T13:28:07.426Z,14.20
2019-02-12T13:33:12.232Z,14.20
2019-02-12T13:38:17.074Z,14.30
2019-02-12T13:43:21.958Z,14.10
2019-02-12T13:48:28.071Z,14.00
2019-02-12T13:53:32.967Z,14.00
2019-02-12T13:58:37.527Z,13.90
2019-02-12T14:03:41.998Z,14.10
2019-02-12T14:08:46.380Z,14.10
2019-02-12T14:13:50.761Z,14.00
2019-02-12T14:18:55.134Z,14.10
2019-02-12T14:23:59.887Z,14.20
2019-02-12T14:29:04.643Z,14.20
2019-02-12T14:34:09.106Z,14.00
2019-02-12T14:39:13.786Z,14.10
2019-02-12T14:44:18.500Z,14.20
2019-02-12T14:49:22.869Z,14.10
2019-02-12T14:54:27.255Z,14.20
2019-02-12T14:59:31.646Z,14.10
2019-02-12T15:04:36.317Z,14.00
2019-02-12T15:09:40.693Z,14.40
2019-02-12T15:14:45.445Z,14.00
2019-02-12T15:19:50.275Z,14.00
2019-02-12T15:24:54.737Z,14.00
2019-02-12T15:29:59.713Z,13.70
2019-02-12T15:35:04.501Z,13.70
2019-02-12T15:40:11.189Z,13.70
2019-02-12T15:45:16.717Z,13.50
2019-02-12T15:50:21.954Z,13.50
2019-02-12T15:55:26.368Z,13.70
2019-02-12T16:00:30.762Z,13.90
2019-02-12T16:05:35.141Z,14.00
2019-02-12T16:10:41.799Z,13.70
2019-02-12T16:15:47.120Z,13.60
2019-02-12T16:20:51.819Z,13.50
2019-02-12T16:25:59.499Z,13.70
2019-02-12T16:31:01.390Z,13.60
2019-02-12T16:36:05.827Z,13.60
2019-02-12T16:41:10.189Z,13.80
2019-02-12T16:46:19.722Z,13.60
2019-02-12T16:51:24.492Z,13.50
2019-02-12T16:56:28.858Z,13.50
2019-02-12T17:01:33.284Z,13.40
2019-02-12T17:06:38.066Z,13.50
2019-02-12T17:11:42.433Z,13.70
2019-02-12T17:16:47.047Z,13.50
2019-02-12T17:21:51.825Z,13.50
2019-02-12T17:26:56.255Z,13.40
2019-02-12T17:32:00.801Z,13.40
2019-02-12T17:37:05.247Z,13.40
2019-02-12T17:42:09.876Z,13.20
2019-02-12T17:47:14.353Z,13.40
2019-02-12T17:52:18.783Z,13.50
2019-02-12T17:57:23.162Z,13.60
2019-02-12T18:02:27.519Z,13.50
2019-02-12T18:07:32.278Z,13.50
2019-02-12T18:12:37.271Z,13.40
2019-02-12T18:17:42.754Z,13.50
2019-02-12T18:22:47.575Z,13.50
2019-02-12T18:27:51.957Z,13.60
2019-02-12T18:32:56.402Z,13.70
2019-02-12T18:38:00.940Z,13.70
2019-02-12T18:43:05.494Z,13.60
2019-02-12T18:48:09.901Z,13.50
2019-02-12T18:53:14.721Z,13.60
2019-02-12T18:58:19.406Z,13.60
2019-02-12T19:03:23.809Z,13.60
2019-02-12T19:08:28.189Z,13.50
2019-02-12T19:13:32.548Z,13.50
2019-02-12T19:18:36.960Z,13.50
2019-02-12T19:23:43.065Z,13.60
2019-02-12T19:28:47.544Z,13.60
2019-02-12T19:33:52.512Z,13.70
2019-02-12T19:38:57.400Z,13.80
2019-02-12T19:44:01.882Z,13.80
2019-02-12T19:49:06.508Z,13.80
2019-02-12T19:54:11.503Z,13.90
2019-02-12T19:59:16.024Z,13.90
2019-02-12T20:04:20.531Z,14.00
2019-02-12T20:09:25.048Z,13.90
2019-02-12T20:14:29.787Z,13.90
2019-02-12T20:19:34.302Z,13.90
2019-02-12T20:24:39.001Z,14.00
2019-02-12T20:29:43.515Z,13.90
2019-02-12T20:34:48.388Z,13.70
2019-02-12T20:39:53.050Z,13.80
2019-02-12T20:44:57.722Z,13.90
2019-02-12T20:50:02.224Z,13.80
2019-02-12T20:55:07.136Z,13.70
2019-02-12T21:00:14.130Z,13.80
2019-02-12T21:05:18.540Z,13.80
2019-02-12T21:10:22.917Z,13.80
2019-02-12T21:15:27.303Z,13.80
2019-02-12T21:20:31.724Z,13.70
2019-02-12T21:25:36.505Z,13.70
2019-02-12T21:30:41.023Z,13.80
2019-02-12T21:35:45.431Z,13.70
2019-02-12T21:40:49.945Z,13.60
2019-02-12T21:45:54.727Z,13.50
2019-02-12T21:50:59.335Z,13.30
2019-02-12T21:56:03.836Z,13.30
2019-02-12T22:01:08.630Z,13.20
2019-02-12T22:06:13.060Z,13.00
2019-02-12T22:11:17.490Z,13.00
2019-02-12T22:16:21.934Z,13.10
2019-02-12T22:21:26.535Z,13.20
2019-02-12T22:26:31.218Z,13.10
2019-02-12T22:31:35.692Z,13.10
2019-02-12T22:36:40.471Z,13.10
2019-02-12T22:41:45.179Z,13.10
2019-02-12T22:46:49.901Z,13.00
2019-02-12T22:51:54.359Z,13.10
2019-02-12T22:56:59.083Z,12.90
2019-02-12T23:02:03.553Z,13.10
2019-02-12T23:07:11.786Z,12.90
2019-02-12T23:12:16.390Z,12.90
2019-02-12T23:34:57.035Z,3.40
2019-02-12T23:39:55.814Z,5.60
2019-02-12T23:45:00.327Z,9.90
2019-02-12T23:50:05.258Z,11.60
2019-02-12T23:55:09.652Z,12.30
